createdAt,value
2023-01-19T00:00:23.094Z,99335.40
2023-01-19T00:01:54.979Z,99339.20
2023-01-19T00:03:27.428Z,99340.00
2023-01-19T00:04:59.589Z,99335.20
2023-01-19T00:06:31.893Z,99334.60
2023-01-19T00:08:14.724Z,99333.00
2023-01-19T00:09:46.690Z,99337.00
2023-01-19T00:11:19.430Z,99344.00
2023-01-19T00:12:51.271Z,99333.80
2023-01-19T00:14:23.137Z,99342.60
2023-01-19T00:15:55.013Z,99338.00
2023-01-19T00:17:26.897Z,99339.00
2023-01-19T00:18:58.673Z,99340.40
2023-01-19T00:20:36.017Z,99346.00
2023-01-19T00:22:08.059Z,99344.00
2023-01-19T00:23:39.803Z,99345.00
2023-01-19T00:25:12.118Z,99339.80
2023-01-19T00:26:44.541Z,99343.80
2023-01-19T00:28:18.952Z,99343.00
2023-01-19T00:29:50.703Z,99340.20
2023-01-19T00:31:22.569Z,99334.20
2023-01-19T00:32:54.312Z,99328.40
2023-01-19T00:34:26.674Z,99329.80
2023-01-19T00:35:58.460Z,99333.00
2023-01-19T00:37:30.242Z,99350.00
2023-01-19T00:39:02.271Z,99356.60
2023-01-19T00:40:34.086Z,99356.80
2023-01-19T00:42:24.618Z,99358.80
2023-01-19T00:43:56.346Z,99369.20
2023-01-19T00:45:28.188Z,99361.60
2023-01-19T00:47:00.104Z,99364.20
2023-01-19T00:48:31.831Z,99369.60
2023-01-19T00:50:04.225Z,99365.80
2023-01-19T00:51:36.267Z,99356.80
2023-01-19T00:53:08.208Z,99359.20
2023-01-19T00:54:39.955Z,99354.60
2023-01-19T00:56:11.664Z,99348.40
2023-01-19T00:57:43.518Z,99349.60
2023-01-19T00:59:15.283Z,99352.40
2023-01-19T01:00:47.015Z,99367.00
2023-01-19T01:02:19.114Z,99356.20
2023-01-19T01:03:51.044Z,99350.40
2023-01-19T01:05:23.154Z,99351.20
2023-01-19T01:06:54.887Z,99348.40
2023-01-19T01:08:26.668Z,99351.00
2023-01-19T01:09:58.475Z,99348.80
2023-01-19T01:11:30.267Z,99351.00
2023-01-19T01:13:21.278Z,99351.20
2023-01-19T01:14:54.005Z,99357.20
2023-01-19T01:16:25.878Z,99350.60
2023-01-19T01:17:57.660Z,99362.40
2023-01-19T01:19:29.470Z,99355.00
2023-01-19T01:21:06.143Z,99356.80
2023-01-19T01:22:39.147Z,99360.40
2023-01-19T01:24:11.251Z,99355.20
2023-01-19T01:25:43.559Z,99371.60
2023-01-19T01:27:15.441Z,99366.00
2023-01-19T01:28:47.234Z,99368.80
2023-01-19T01:30:20.460Z,99373.60
2023-01-19T01:31:52.523Z,99369.40
2023-01-19T01:33:40.472Z,99372.40
2023-01-19T01:35:14.783Z,99368.40
2023-01-19T01:36:46.557Z,99371.40
2023-01-19T01:38:18.394Z,99369.00
2023-01-19T01:39:50.245Z,99373.40
2023-01-19T01:41:22.076Z,99363.80
2023-01-19T01:42:57.402Z,99364.40
2023-01-19T01:44:54.467Z,99360.20
2023-01-19T01:46:29.575Z,99365.00
2023-01-19T01:48:06.116Z,99360.40
2023-01-19T01:49:38.700Z,99363.80
2023-01-19T01:51:24.920Z,99366.40
2023-01-19T01:53:07.386Z,99360.40
2023-01-19T01:54:39.886Z,99363.20
2023-01-19T01:56:19.855Z,99361.60
2023-01-19T01:57:58.855Z,99361.60
2023-01-19T01:59:39.150Z,99365.40
2023-01-19T02:01:29.959Z,99364.60
2023-01-19T02:03:02.233Z,99370.80
2023-01-19T02:04:34.311Z,99376.20
2023-01-19T02:06:08.389Z,99371.00
2023-01-19T02:08:26.426Z,99373.80
2023-01-19T02:10:17.137Z,99376.60
2023-01-19T02:12:09.438Z,99379.80
2023-01-19T02:13:45.248Z,99381.60
2023-01-19T02:15:20.684Z,99372.40
2023-01-19T02:16:53.200Z,99369.40
2023-01-19T02:18:30.518Z,99360.00
2023-01-19T02:20:02.467Z,99355.80
2023-01-19T02:21:52.139Z,99358.40
2023-01-19T02:23:39.078Z,99359.00
2023-01-19T02:25:13.791Z,99360.60
2023-01-19T02:26:48.626Z,99353.80
2023-01-19T02:28:21.146Z,99347.40
2023-01-19T02:29:53.337Z,99356.80
2023-01-19T02:31:28.550Z,99360.20
2023-01-19T02:33:00.514Z,99366.00
2023-01-19T02:34:33.002Z,99365.80
2023-01-19T02:36:08.212Z,99362.40
2023-01-19T02:37:42.838Z,99356.60
2023-01-19T02:39:19.487Z,99353.00
2023-01-19T02:40:52.561Z,99355.60
2023-01-19T02:43:01.174Z,99346.40
2023-01-19T02:44:36.588Z,99350.00
2023-01-19T02:46:08.989Z,99345.20
2023-01-19T02:47:47.734Z,99346.80
2023-01-19T02:49:19.635Z,99351.60
2023-01-19T02:51:12.129Z,99344.40
2023-01-19T02:52:43.901Z,99345.40
2023-01-19T02:54:30.626Z,99347.80
2023-01-19T02:56:20.708Z,99344.60
2023-01-19T02:58:15.144Z,99341.60
2023-01-19T03:00:14.755Z,99339.80
2023-01-19T03:01:54.376Z,99343.80
2023-01-19T03:03:44.934Z,99336.00
2023-01-19T03:05:34.959Z,99343.40
2023-01-19T03:07:35.939Z,99337.00
2023-01-19T03:09:52.154Z,99342.60
2023-01-19T03:11:29.676Z,99330.40
2023-01-19T03:13:16.598Z,99332.40
2023-01-19T03:14:49.037Z,99329.00
2023-01-19T03:16:29.733Z,99335.80
2023-01-19T03:18:03.890Z,99324.40
2023-01-19T03:19:43.853Z,99324.60
2023-01-19T03:21:19.631Z,99328.80
2023-01-19T03:23:02.367Z,99332.60
2023-01-19T03:24:40.221Z,99329.80
2023-01-19T03:26:18.842Z,99332.40
2023-01-19T03:27:57.480Z,99335.80
2023-01-19T03:29:38.547Z,99326.20
2023-01-19T03:31:19.334Z,99331.80
2023-01-19T03:33:07.939Z,99342.00
2023-01-19T03:34:41.954Z,99332.60
2023-01-19T03:36:23.492Z,99327.20
2023-01-19T03:37:58.541Z,99326.80
2023-01-19T03:39:31.707Z,99321.00
2023-01-19T03:41:11.929Z,99322.20
2023-01-19T03:42:45.231Z,99318.00
2023-01-19T03:44:17.230Z,99321.20
2023-01-19T03:45:54.075Z,99316.20
2023-01-19T03:47:28.505Z,99322.40
2023-01-19T03:49:00.376Z,99323.00
2023-01-19T03:50:32.613Z,99336.00
2023-01-19T03:52:05.289Z,99329.80
2023-01-19T03:53:37.531Z,99331.40
2023-01-19T03:55:10.458Z,99334.60
2023-01-19T03:56:43.817Z,99329.80
2023-01-19T03:58:15.649Z,99332.60
2023-01-19T03:59:48.964Z,99332.80
2023-01-19T04:01:23.035Z,99329.40
2023-01-19T04:02:55.946Z,99332.40
2023-01-19T04:04:27.761Z,99329.00
2023-01-19T04:05:59.824Z,99322.20
2023-01-19T04:07:32.177Z,99330.00
2023-01-19T04:09:04.031Z,99330.80
2023-01-19T04:10:36.829Z,99328.40
2023-01-19T04:12:09.503Z,99331.60
2023-01-19T04:13:41.554Z,99327.00
2023-01-19T04:15:15.004Z,99328.60
2023-01-19T04:16:46.752Z,99328.40
2023-01-19T04:18:18.466Z,99325.40
2023-01-19T04:19:50.234Z,99325.60
2023-01-19T04:21:22.089Z,99330.20
2023-01-19T04:22:55.171Z,99326.60
2023-01-19T04:24:29.256Z,99326.00
2023-01-19T04:26:06.995Z,99331.60
2023-01-19T04:27:38.838Z,99331.40
2023-01-19T04:29:10.690Z,99330.00
2023-01-19T04:30:42.586Z,99330.40
2023-01-19T04:32:14.819Z,99335.20
2023-01-19T04:33:46.838Z,99332.60
2023-01-19T04:35:18.609Z,99341.20
2023-01-19T04:36:51.570Z,99339.60
2023-01-19T04:38:25.677Z,99338.20
2023-01-19T04:39:59.971Z,99333.40
2023-01-19T04:41:31.852Z,99333.60
2023-01-19T04:43:04.394Z,99332.60
2023-01-19T04:44:36.261Z,99328.60
2023-01-19T04:46:08.078Z,99325.80
2023-01-19T04:47:42.726Z,99322.40
2023-01-19T04:49:15.481Z,99324.20
2023-01-19T04:50:47.669Z,99326.40
2023-01-19T04:52:19.644Z,99323.20
2023-01-19T04:53:51.391Z,99323.80
2023-01-19T04:55:25.754Z,99320.00
2023-01-19T04:56:58.697Z,99323.60
2023-01-19T04:58:30.498Z,99325.00
2023-01-19T05:00:02.989Z,99323.60
2023-01-19T05:01:35.465Z,99321.20
2023-01-19T05:03:07.520Z,99329.40
2023-01-19T05:04:39.509Z,99329.20
2023-01-19T05:06:11.330Z,99325.80
2023-01-19T05:07:44.435Z,99332.20
2023-01-19T05:09:16.406Z,99331.60
2023-01-19T05:10:48.463Z,99334.60
2023-01-19T05:12:21.048Z,99336.00
2023-01-19T05:13:52.998Z,99335.40
2023-01-19T05:15:24.866Z,99336.20
2023-01-19T05:16:56.840Z,99341.60
2023-01-19T05:18:30.014Z,99349.20
2023-01-19T05:20:03.660Z,99343.00
2023-01-19T05:21:40.373Z,99344.40
2023-01-19T05:23:13.156Z,99347.00
2023-01-19T05:24:44.921Z,99345.20
2023-01-19T05:26:16.721Z,99350.60
2023-01-19T05:27:48.689Z,99352.80
2023-01-19T05:29:20.550Z,99357.00
2023-01-19T05:30:53.139Z,99352.00
2023-01-19T05:32:25.030Z,99356.40
2023-01-19T05:33:57.852Z,99355.00
2023-01-19T05:35:35.735Z,99347.60
2023-01-19T05:37:07.879Z,99357.60
2023-01-19T05:38:39.651Z,99354.40
2023-01-19T05:40:12.123Z,99358.20
2023-01-19T05:41:45.558Z,99359.80
2023-01-19T05:43:17.696Z,99360.20
2023-01-19T05:44:49.704Z,99358.80
2023-01-19T05:46:21.540Z,99360.80
2023-01-19T05:48:17.792Z,99358.20
2023-01-19T05:49:49.531Z,99360.60
2023-01-19T05:51:22.094Z,99367.00
2023-01-19T05:52:54.288Z,99366.20
2023-01-19T05:54:26.219Z,99359.00
2023-01-19T05:56:08.969Z,99358.00
2023-01-19T05:57:40.785Z,99367.20
2023-01-19T05:59:15.687Z,99362.80
2023-01-19T06:00:47.614Z,99361.20
2023-01-19T06:02:19.565Z,99367.00
2023-01-19T06:03:52.831Z,99370.00
2023-01-19T06:05:27.003Z,99370.80
2023-01-19T06:06:58.869Z,99366.80
2023-01-19T06:08:30.928Z,99363.60
2023-01-19T06:10:05.344Z,99361.00
2023-01-19T06:11:37.672Z,99358.40
2023-01-19T06:13:11.206Z,99356.60
2023-01-19T06:14:43.041Z,99368.80
2023-01-19T06:16:16.249Z,99366.40
2023-01-19T06:17:48.386Z,99362.00
2023-01-19T06:19:21.428Z,99364.00
2023-01-19T06:20:58.627Z,99364.00
2023-01-19T06:22:30.529Z,99372.80
2023-01-19T06:24:03.684Z,99375.80
2023-01-19T06:25:35.715Z,99369.80
2023-01-19T06:27:08.702Z,99380.00
2023-01-19T06:28:42.674Z,99376.00
2023-01-19T06:30:14.767Z,99385.40
2023-01-19T06:31:46.789Z,99388.60
2023-01-19T06:33:20.337Z,99393.60
2023-01-19T06:34:53.892Z,99395.00
2023-01-19T06:36:26.080Z,99399.40
2023-01-19T06:37:57.803Z,99401.40
2023-01-19T06:39:29.816Z,99406.60
2023-01-19T06:41:05.075Z,99402.40
2023-01-19T06:42:36.863Z,99399.60
2023-01-19T06:44:10.199Z,99406.00
2023-01-19T06:45:44.520Z,99408.40
2023-01-19T06:47:17.436Z,99408.40
2023-01-19T06:48:49.882Z,99409.40
2023-01-19T06:50:21.663Z,99412.40
2023-01-19T06:51:55.810Z,99418.80
2023-01-19T06:53:30.140Z,99424.40
2023-01-19T06:55:04.121Z,99420.40
2023-01-19T06:56:36.171Z,99421.40
2023-01-19T06:58:08.831Z,99420.20
2023-01-19T06:59:40.974Z,99423.80
2023-01-19T07:01:13.403Z,99432.00
2023-01-19T07:02:45.541Z,99430.40
2023-01-19T07:04:17.452Z,99444.00
2023-01-19T07:05:54.056Z,99443.20
2023-01-19T07:07:27.247Z,99437.40
2023-01-19T07:09:00.275Z,99451.00
2023-01-19T07:11:26.576Z,99446.20
2023-01-19T07:12:24.101Z,99454.60
2023-01-19T07:13:56.109Z,99454.60
2023-01-19T07:15:28.009Z,99455.40
2023-01-19T07:17:00.290Z,99461.00
2023-01-19T07:18:32.091Z,99458.60
2023-01-19T07:20:04.424Z,99468.80
2023-01-19T07:21:37.245Z,99456.80
2023-01-19T07:23:10.723Z,99460.60
2023-01-19T07:24:42.664Z,99463.80
2023-01-19T07:26:15.418Z,99467.40
2023-01-19T07:27:47.295Z,99463.60
2023-01-19T07:29:19.105Z,99468.60
2023-01-19T07:30:55.844Z,99473.40
2023-01-19T07:32:29.441Z,99481.60
2023-01-19T07:34:01.395Z,99475.60
2023-01-19T07:35:35.330Z,99477.60
2023-01-19T07:37:07.067Z,99478.60
2023-01-19T07:38:39.447Z,99482.00
2023-01-19T07:40:12.062Z,99484.80
2023-01-19T07:41:44.113Z,99490.20
2023-01-19T07:43:17.049Z,99490.20
2023-01-19T07:44:48.890Z,99486.00
2023-01-19T07:46:20.749Z,99493.80
2023-01-19T07:47:52.603Z,99490.80
2023-01-19T07:49:24.813Z,99490.20
2023-01-19T07:51:01.849Z,99491.20
2023-01-19T07:52:33.626Z,99493.00
2023-01-19T07:54:06.173Z,99503.20
2023-01-19T07:55:38.029Z,99501.00
2023-01-19T07:57:10.418Z,99494.60
2023-01-19T07:58:42.628Z,99503.00
2023-01-19T08:00:15.988Z,99509.40
2023-01-19T08:01:47.869Z,99513.00
2023-01-19T08:03:20.954Z,99519.00
2023-01-19T08:04:52.837Z,99518.20
2023-01-19T08:06:36.068Z,99526.40
2023-01-19T08:08:08.584Z,99524.40
2023-01-19T08:09:40.656Z,99531.80
2023-01-19T08:11:12.569Z,99540.20
2023-01-19T08:12:44.529Z,99540.00
2023-01-19T08:14:16.443Z,99545.00
2023-01-19T08:15:53.065Z,99541.40
2023-01-19T08:17:25.144Z,99545.40
2023-01-19T08:18:56.909Z,99544.20
2023-01-19T08:20:30.126Z,99549.00
2023-01-19T08:22:02.893Z,99549.20
2023-01-19T08:23:34.779Z,99564.20
2023-01-19T08:25:07.913Z,99554.60
2023-01-19T08:26:39.815Z,99553.80
2023-01-19T08:28:16.036Z,99561.80
2023-01-19T08:29:49.720Z,99565.20
2023-01-19T08:31:24.536Z,99562.80
2023-01-19T08:33:04.470Z,99564.60
2023-01-19T08:34:37.541Z,99566.20
2023-01-19T08:36:09.552Z,99571.80
2023-01-19T08:37:41.390Z,99573.40
2023-01-19T08:39:18.653Z,99572.60
2023-01-19T08:40:51.141Z,99570.00
2023-01-19T08:42:22.987Z,99577.00
2023-01-19T08:43:54.800Z,99578.80
2023-01-19T08:45:29.810Z,99585.80
2023-01-19T08:47:01.601Z,99583.40
2023-01-19T08:48:34.009Z,99586.80
2023-01-19T08:50:08.318Z,99589.00
2023-01-19T08:51:40.173Z,99594.00
2023-01-19T08:53:12.372Z,99593.60
2023-01-19T08:54:44.118Z,99594.40
2023-01-19T08:56:16.243Z,99599.40
2023-01-19T08:57:55.994Z,99609.40
2023-01-19T08:59:27.909Z,99608.60
2023-01-19T09:01:01.951Z,99604.60
2023-01-19T09:02:34.994Z,99615.60
2023-01-19T09:04:07.187Z,99611.80
2023-01-19T09:05:39.934Z,99625.80
2023-01-19T09:07:11.825Z,99625.00
2023-01-19T09:08:44.337Z,99633.00
2023-01-19T09:10:17.664Z,99629.60
2023-01-19T09:11:49.482Z,99630.00
2023-01-19T09:13:21.302Z,99633.20
2023-01-19T09:14:53.065Z,99633.80
2023-01-19T09:16:27.244Z,99634.00
2023-01-19T09:17:59.917Z,99636.60
2023-01-19T09:19:33.325Z,99638.60
2023-01-19T09:21:05.892Z,99646.20
2023-01-19T09:22:39.709Z,99643.60
2023-01-19T09:24:12.851Z,99639.80
2023-01-19T09:25:47.328Z,99648.00
2023-01-19T09:27:19.169Z,99651.00
2023-01-19T09:28:51.023Z,99657.80
2023-01-19T09:30:22.882Z,99654.60
2023-01-19T09:31:54.768Z,99654.00
2023-01-19T09:33:26.654Z,99651.20
2023-01-19T09:34:59.255Z,99648.80
2023-01-19T09:36:32.751Z,99657.40
2023-01-19T09:38:07.567Z,99660.80
2023-01-19T09:39:39.415Z,99663.20
2023-01-19T09:41:22.612Z,99671.20
2023-01-19T09:43:15.341Z,99669.80
2023-01-19T09:44:51.330Z,99668.60
2023-01-19T09:46:39.333Z,99677.40
2023-01-19T09:48:51.891Z,99679.80
2023-01-19T09:50:34.245Z,99677.60
2023-01-19T09:52:10.901Z,99676.40
2023-01-19T09:53:53.439Z,99679.20
2023-01-19T09:55:27.948Z,99682.00
2023-01-19T09:57:00.366Z,99679.00
2023-01-19T09:58:32.242Z,99684.80
2023-01-19T10:00:18.404Z,99687.40
2023-01-19T10:02:14.571Z,99689.20
2023-01-19T10:03:48.222Z,99693.80
2023-01-19T10:05:44.860Z,99689.00
2023-01-19T10:07:41.057Z,99687.60
2023-01-19T10:09:54.057Z,99691.00
2023-01-19T10:11:51.314Z,99690.80
2023-01-19T10:13:49.738Z,99691.20
2023-01-19T10:16:03.941Z,99698.20
2023-01-19T10:17:47.754Z,99697.60
2023-01-19T10:19:38.256Z,99700.20
2023-01-19T10:21:43.265Z,99708.40
2023-01-19T10:23:41.794Z,99710.20
2023-01-19T10:25:23.917Z,99709.20
2023-01-19T10:26:57.483Z,99717.80
2023-01-19T10:28:30.248Z,99717.40
2023-01-19T10:30:04.109Z,99714.60
2023-01-19T10:31:42.350Z,99716.20
2023-01-19T10:33:15.411Z,99720.20
2023-01-19T10:34:50.400Z,99722.00
2023-01-19T10:36:37.285Z,99721.00
2023-01-19T10:38:15.283Z,99723.60
2023-01-19T10:39:58.591Z,99727.40
2023-01-19T10:41:50.924Z,99724.40
2023-01-19T10:43:34.954Z,99724.60
2023-01-19T10:45:23.928Z,99724.60
2023-01-19T10:47:00.023Z,99733.60
2023-01-19T10:48:42.050Z,99730.60
2023-01-19T10:50:37.176Z,99730.20
2023-01-19T10:52:39.844Z,99727.00
2023-01-19T10:54:13.603Z,99727.00
2023-01-19T10:55:45.530Z,99723.20
2023-01-19T10:57:37.749Z,99727.40
2023-01-19T10:59:49.517Z,99729.40
2023-01-19T11:01:28.371Z,99726.80
2023-01-19T11:03:02.312Z,99732.40
2023-01-19T11:04:34.539Z,99734.00
2023-01-19T11:06:21.174Z,99734.60
2023-01-19T11:07:53.138Z,99740.20
2023-01-19T11:09:24.973Z,99740.60
2023-01-19T11:11:05.211Z,99733.60
2023-01-19T11:12:44.256Z,99739.80
2023-01-19T11:14:22.250Z,99740.20
2023-01-19T11:15:58.701Z,99742.20
2023-01-19T11:17:30.615Z,99741.80
2023-01-19T11:19:05.740Z,99737.80
2023-01-19T11:20:51.396Z,99742.60
2023-01-19T11:22:33.408Z,99742.60
2023-01-19T11:24:10.256Z,99746.60
2023-01-19T11:25:48.770Z,99747.20
2023-01-19T11:27:22.095Z,99738.40
2023-01-19T11:28:57.122Z,99742.80
2023-01-19T11:30:30.612Z,99739.60
2023-01-19T11:32:22.347Z,99738.20
2023-01-19T11:33:58.323Z,99737.60
2023-01-19T11:35:39.431Z,99735.20
2023-01-19T11:37:19.939Z,99735.60
2023-01-19T11:38:58.852Z,99732.00
2023-01-19T11:40:32.472Z,99735.80
2023-01-19T11:42:09.012Z,99738.00
2023-01-19T11:43:49.008Z,99745.20
2023-01-19T11:45:23.135Z,99737.20
2023-01-19T11:47:01.010Z,99740.40
2023-01-19T11:48:42.771Z,99739.60
2023-01-19T11:50:32.018Z,99736.00
2023-01-19T11:52:33.892Z,99738.00
2023-01-19T11:54:25.681Z,99740.80
2023-01-19T11:56:13.973Z,99745.20
2023-01-19T11:57:54.286Z,99743.20
2023-01-19T11:59:26.615Z,99749.60
2023-01-19T12:01:21.198Z,99746.60
2023-01-19T12:03:02.908Z,99745.80
2023-01-19T12:04:40.537Z,99738.80
2023-01-19T12:06:38.350Z,99749.40
2023-01-19T12:08:20.182Z,99742.20
2023-01-19T12:10:01.411Z,99745.00
2023-01-19T12:11:50.794Z,99744.80
2023-01-19T12:13:26.262Z,99749.60
2023-01-19T12:15:08.616Z,99748.40
2023-01-19T12:16:43.249Z,99750.00
2023-01-19T12:18:28.452Z,99747.00
2023-01-19T12:20:25.152Z,99747.20
2023-01-19T12:21:57.513Z,99746.80
2023-01-19T12:24:23.256Z,99748.20
2023-01-19T12:26:24.970Z,99755.00
2023-01-19T12:27:59.362Z,99747.00
2023-01-19T12:29:36.466Z,99751.40
2023-01-19T12:31:10.966Z,99753.20
2023-01-19T12:32:43.523Z,99748.20
2023-01-19T12:34:31.442Z,99749.80
2023-01-19T12:36:10.087Z,99753.80
2023-01-19T12:37:43.955Z,99751.40
2023-01-19T12:39:23.691Z,99749.20
2023-01-19T12:41:28.204Z,99754.00
2023-01-19T12:43:04.811Z,99748.40
2023-01-19T12:44:36.869Z,99750.60
2023-01-19T12:46:31.458Z,99756.60
2023-01-19T12:48:08.822Z,99755.60
2023-01-19T12:49:48.455Z,99757.40
2023-01-19T12:51:28.882Z,99754.20
2023-01-19T12:53:03.648Z,99757.00
2023-01-19T12:54:36.519Z,99754.60
2023-01-19T12:56:10.539Z,99756.20
2023-01-19T12:58:15.289Z,99755.20
2023-01-19T12:59:47.601Z,99754.60
2023-01-19T13:01:21.850Z,99756.60
2023-01-19T13:03:00.536Z,99757.80
2023-01-19T13:04:34.087Z,99755.60
2023-01-19T13:06:05.910Z,99756.20
2023-01-19T13:08:05.588Z,99755.80
2023-01-19T13:09:40.027Z,99752.60
2023-01-19T13:11:19.741Z,99758.60
2023-01-19T13:13:18.575Z,99760.60
2023-01-19T13:15:10.510Z,99760.40
2023-01-19T13:16:42.316Z,99760.20
2023-01-19T13:18:28.726Z,99760.40
2023-01-19T13:20:27.534Z,99767.40
2023-01-19T13:22:51.572Z,99764.40
2023-01-19T13:24:24.137Z,99760.20
2023-01-19T13:26:06.727Z,99760.60
2023-01-19T13:27:40.312Z,99761.40
2023-01-19T13:29:41.334Z,99770.40
2023-01-19T13:31:15.042Z,99762.60
2023-01-19T13:32:48.271Z,99762.80
2023-01-19T13:34:28.182Z,99767.20
2023-01-19T13:36:00.152Z,99769.80
2023-01-19T13:37:41.704Z,99765.00
2023-01-19T13:39:45.371Z,99774.40
2023-01-19T13:41:40.780Z,99768.40
2023-01-19T13:43:29.297Z,99773.20
2023-01-19T13:45:16.716Z,99774.00
2023-01-19T13:46:50.419Z,99770.20
2023-01-19T13:48:25.267Z,99769.20
2023-01-19T13:50:01.059Z,99778.80
2023-01-19T13:51:33.232Z,99773.20
2023-01-19T13:53:21.241Z,99775.20
2023-01-19T13:55:05.977Z,99775.80
2023-01-19T13:56:38.701Z,99787.00
2023-01-19T13:58:24.257Z,99786.60
2023-01-19T14:00:18.965Z,99782.80
2023-01-19T14:01:51.907Z,99787.40
2023-01-19T14:03:25.125Z,99785.80
2023-01-19T14:04:57.502Z,99787.40
2023-01-19T14:06:48.940Z,99790.20
2023-01-19T14:08:25.656Z,99790.00
2023-01-19T14:10:14.441Z,99796.60
2023-01-19T14:12:15.269Z,99797.60
2023-01-19T14:13:47.986Z,99797.20
2023-01-19T14:15:20.182Z,99805.40
2023-01-19T14:16:52.377Z,99802.40
2023-01-19T14:18:35.567Z,99802.40
2023-01-19T14:20:29.997Z,99800.60
2023-01-19T14:22:07.277Z,99806.20
2023-01-19T14:23:47.272Z,99806.00
2023-01-19T14:25:32.033Z,99811.40
2023-01-19T14:27:25.332Z,99817.00
2023-01-19T14:28:59.212Z,99820.80
2023-01-19T14:30:32.587Z,99824.80
2023-01-19T14:32:18.047Z,99821.40
2023-01-19T14:33:55.957Z,99825.00
2023-01-19T14:35:30.060Z,99822.80
2023-01-19T14:37:06.673Z,99820.20
2023-01-19T14:38:47.255Z,99821.80
2023-01-19T14:40:24.539Z,99824.80
2023-01-19T14:42:03.179Z,99826.00
2023-01-19T14:43:35.184Z,99822.40
2023-01-19T14:45:18.335Z,99813.00
2023-01-19T14:46:50.755Z,99824.00
2023-01-19T14:48:22.786Z,99819.60
2023-01-19T14:50:03.656Z,99829.80
2023-01-19T14:51:37.098Z,99832.80
2023-01-19T14:53:25.602Z,99827.40
2023-01-19T14:55:00.821Z,99828.60
2023-01-19T14:56:34.186Z,99826.40
2023-01-19T14:58:16.376Z,99828.20
2023-01-19T14:59:50.495Z,99832.60
2023-01-19T15:01:25.270Z,99836.60
2023-01-19T15:02:59.262Z,99832.40
2023-01-19T15:04:31.023Z,99839.40
2023-01-19T15:06:04.343Z,99838.60
2023-01-19T15:07:40.572Z,99838.00
2023-01-19T15:09:14.451Z,99841.00
2023-01-19T15:10:46.766Z,99837.20
2023-01-19T15:12:21.445Z,99839.60
2023-01-19T15:13:55.410Z,99836.80
2023-01-19T15:15:33.083Z,99839.00
2023-01-19T15:17:05.388Z,99838.60
2023-01-19T15:18:39.559Z,99840.00
2023-01-19T15:20:19.356Z,99838.60
2023-01-19T15:21:52.114Z,99844.80
2023-01-19T15:23:24.289Z,99842.40
2023-01-19T15:25:00.263Z,99844.60
2023-01-19T15:26:32.127Z,99843.00
2023-01-19T15:28:13.839Z,99845.60
2023-01-19T15:29:46.145Z,99847.60
2023-01-19T15:31:22.417Z,99848.40
2023-01-19T15:32:55.070Z,99848.00
2023-01-19T15:34:26.877Z,99849.60
2023-01-19T15:36:01.754Z,99852.20
2023-01-19T15:37:34.677Z,99852.00
2023-01-19T15:39:06.530Z,99858.00
2023-01-19T15:40:41.216Z,99857.80
2023-01-19T15:42:15.756Z,99859.00
2023-01-19T15:43:49.023Z,99856.20
2023-01-19T15:45:33.487Z,99860.40
2023-01-19T15:47:12.799Z,99859.00
2023-01-19T15:48:45.228Z,99865.00
2023-01-19T15:50:17.446Z,99864.00
2023-01-19T15:51:49.730Z,99860.40
2023-01-19T15:53:24.233Z,99871.80
2023-01-19T15:54:56.447Z,99866.60
2023-01-19T15:56:31.562Z,99873.20
2023-01-19T15:58:06.786Z,99872.60
2023-01-19T15:59:38.978Z,99875.80
2023-01-19T16:01:17.427Z,99877.20
2023-01-19T16:02:53.515Z,99880.60
2023-01-19T16:04:25.436Z,99881.00
2023-01-19T16:06:01.731Z,99883.60
2023-01-19T16:07:36.207Z,99883.00
2023-01-19T16:09:09.707Z,99884.80
2023-01-19T16:10:43.353Z,99890.60
2023-01-19T16:12:16.604Z,99893.80
2023-01-19T16:13:48.492Z,99892.80
2023-01-19T16:15:31.289Z,99890.80
2023-01-19T16:17:03.087Z,99888.60
2023-01-19T16:18:36.528Z,99890.40
2023-01-19T16:20:14.313Z,99895.00
2023-01-19T16:21:47.687Z,99892.00
2023-01-19T16:23:20.799Z,99895.80
2023-01-19T16:24:53.628Z,99892.40
2023-01-19T16:26:35.815Z,99897.20
2023-01-19T16:28:09.353Z,99896.80
2023-01-19T16:29:41.772Z,99900.60
2023-01-19T16:31:15.167Z,99897.60
2023-01-19T16:32:47.618Z,99900.40
2023-01-19T16:34:19.688Z,99900.80
2023-01-19T16:35:52.796Z,99903.60
2023-01-19T16:37:26.694Z,99905.40
2023-01-19T16:39:15.639Z,99913.00
2023-01-19T16:40:48.556Z,99911.60
2023-01-19T16:42:20.369Z,99911.00
2023-01-19T16:43:57.754Z,99913.40
2023-01-19T16:45:29.863Z,99917.40
2023-01-19T16:47:01.724Z,99918.60
2023-01-19T16:48:34.043Z,99919.60
2023-01-19T16:50:06.659Z,99916.60
2023-01-19T16:51:38.886Z,99916.80
2023-01-19T16:53:10.773Z,99926.00
2023-01-19T16:54:43.317Z,99924.00
2023-01-19T16:56:15.277Z,99927.80
2023-01-19T16:57:48.362Z,99927.40
2023-01-19T16:59:24.048Z,99936.60
2023-01-19T17:00:56.008Z,99938.60
2023-01-19T17:02:31.161Z,99940.00
2023-01-19T17:04:04.792Z,99941.20
2023-01-19T17:05:39.316Z,99938.00
2023-01-19T17:07:12.467Z,99941.40
2023-01-19T17:08:45.194Z,99947.20
2023-01-19T17:10:19.655Z,99946.20
2023-01-19T17:11:54.707Z,99943.40
2023-01-19T17:13:27.520Z,99940.40
2023-01-19T17:15:00.028Z,99942.60
2023-01-19T17:16:35.505Z,99943.40
2023-01-19T17:18:12.691Z,99944.80
2023-01-19T17:19:45.335Z,99945.20
2023-01-19T17:21:19.957Z,99944.60
2023-01-19T17:22:52.038Z,99948.40
2023-01-19T17:24:24.051Z,99945.80
2023-01-19T17:25:58.418Z,99946.80
2023-01-19T17:27:31.295Z,99945.80
2023-01-19T17:29:08.044Z,99948.20
2023-01-19T17:30:41.545Z,99943.20
2023-01-19T17:32:14.744Z,99950.20
2023-01-19T17:33:51.700Z,99952.80
2023-01-19T17:35:23.582Z,99953.60
2023-01-19T17:37:03.451Z,99959.00
2023-01-19T17:38:37.910Z,99961.40
2023-01-19T17:40:12.218Z,99967.20
2023-01-19T17:41:48.867Z,99965.80
2023-01-19T17:43:22.038Z,99964.80
2023-01-19T17:44:53.966Z,99964.60
2023-01-19T17:46:29.866Z,99966.20
2023-01-19T17:48:04.973Z,99967.00
2023-01-19T17:49:37.326Z,99970.40
2023-01-19T17:51:12.766Z,99969.60
2023-01-19T17:52:45.619Z,99969.00
2023-01-19T17:54:17.995Z,99967.40
2023-01-19T17:55:49.892Z,99964.60
2023-01-19T17:57:21.784Z,99963.40
2023-01-19T17:58:53.695Z,99963.40
2023-01-19T18:00:25.848Z,99964.60
2023-01-19T18:01:57.923Z,99970.40
2023-01-19T18:03:29.896Z,99973.00
2023-01-19T18:05:03.479Z,99970.40
2023-01-19T18:06:37.709Z,99972.00
2023-01-19T18:08:10.269Z,99972.00
2023-01-19T18:09:42.379Z,99972.20
2023-01-19T18:11:16.601Z,99973.00
2023-01-19T18:12:48.508Z,99973.80
2023-01-19T18:14:22.030Z,99971.00
2023-01-19T18:16:29.289Z,99969.40
2023-01-19T18:18:01.123Z,99973.00
2023-01-19T18:19:34.735Z,99976.60
2023-01-19T18:21:11.314Z,99982.80
2023-01-19T18:22:43.201Z,99983.60
2023-01-19T18:24:15.852Z,99975.60
2023-01-19T18:25:49.471Z,99982.40
2023-01-19T18:27:21.992Z,99983.80
2023-01-19T18:28:58.105Z,99984.40
2023-01-19T18:30:31.180Z,99982.00
2023-01-19T18:32:03.018Z,99981.80
2023-01-19T18:33:40.901Z,99979.20
2023-01-19T18:35:12.899Z,99981.20
2023-01-19T18:36:44.838Z,99991.20
2023-01-19T18:38:24.301Z,99986.60
2023-01-19T18:39:59.975Z,99988.40
2023-01-19T18:41:31.897Z,99989.60
2023-01-19T18:43:03.734Z,99987.00
2023-01-19T18:44:35.816Z,99987.40
2023-01-19T18:46:08.255Z,99990.40
2023-01-19T18:47:40.169Z,99991.00
2023-01-19T18:49:12.083Z,99994.20
2023-01-19T18:50:45.132Z,99994.20
2023-01-19T18:52:17.127Z,99992.80
2023-01-19T18:53:49.053Z,99996.60
2023-01-19T18:55:21.162Z,99997.20